Time;durP1;ratioP1;P1;durP2;ratioP2;P2;SDS_P1;SDS_P2;PMS_P1;PMS_P2;Temp;Humidity;BMP_temperature;BMP_pressure;BME280_temperature;BME280_humidity;BME280_pressure;Samples;Min_cycle;Max_cycle;Signal;HPM_P1;HPM_P2
2024/01/11 00:00:43;;;;;;;18.27;8.80;;;;;;;;;;5069622;28;20623;-70
2024/01/11 00:03:09;;;;;;;15.53;7.43;;;;;;;;;;5069855;28;20207;-70
2024/01/11 00:05:35;;;;;;;16.43;7.67;;;;;;;;;;5070976;28;20260;-70
2024/01/11 00:08:01;;;;;;;10.37;6.63;;;;;;;;;;5072020;28;20707;-68
2024/01/11 00:10:27;;;;;;;14.73;7.03;;;;;;;;;;5074234;28;20753;-69
2024/01/11 00:12:53;;;;;;;15.03;6.07;;;;;;;;;;5069082;28;20182;-71
2024/01/11 00:15:19;;;;;;;13.27;5.63;;;;;;;;;;5070885;28;20248;-69
2024/01/11 00:17:45;;;;;;;11.47;5.63;;;;;;;;;;5067110;28;20214;-70
2024/01/11 00:20:11;;;;;;;13.63;5.27;;;;;;;;;;5071143;28;20232;-70
2024/01/11 00:22:37;;;;;;;14.27;6.10;;;;;;;;;;5075723;28;20547;-70
2024/01/11 00:25:04;;;;;;;13.93;6.93;;;;;;;;;;5069341;28;20261;-71
2024/01/11 00:27:30;;;;;;;15.57;7.13;;;;;;;;;;5070589;28;20209;-70
2024/01/11 00:29:56;;;;;;;14.87;5.90;;;;;;;;;;5059331;28;20270;-70
2024/01/11 00:32:22;;;;;;;15.50;6.60;;;;;;;;;;5071484;28;20733;-70
2024/01/11 00:34:48;;;;;;;14.50;7.17;;;;;;;;;;5076730;28;20233;-71
2024/01/11 00:37:14;;;;;;;16.43;6.77;;;;;;;;;;5070870;28;20201;-71
2024/01/11 00:39:40;;;;;;;15.10;6.40;;;;;;;;;;5075296;28;20213;-71
2024/01/11 00:42:06;;;;;;;8.93;5.00;;;;;;;;;;5072544;28;20623;-71
2024/01/11 00:44:32;;;;;;;12.87;5.70;;;;;;;;;;5078528;28;20292;-69
2024/01/11 00:46:58;;;;;;;13.07;5.70;;;;;;;;;;5052635;28;20210;-72
2024/01/11 00:49:24;;;;;;;11.97;5.23;;;;;;;;;;5073069;28;20188;-72
2024/01/11 00:51:50;;;;;;;8.93;4.93;;;;;;;;;;5057875;28;20194;-70
2024/01/11 00:54:16;;;;;;;12.33;4.37;;;;;;;;;;5054625;28;20267;-70
2024/01/11 00:56:42;;;;;;;9.80;4.30;;;;;;;;;;5072594;28;20218;-70
2024/01/11 00:59:09;;;;;;;11.03;4.57;;;;;;;;;;5069791;28;20212;-71
2024/01/11 01:01:35;;;;;;;14.03;6.10;;;;;;;;;;5053127;28;20340;-70
2024/01/11 01:04:00;;;;;;;11.30;5.47;;;;;;;;;;5077069;28;20660;-69
2024/01/11 01:06:27;;;;;;;13.40;6.30;;;;;;;;;;5079308;28;20377;-70
2024/01/11 01:08:53;;;;;;;15.37;6.77;;;;;;;;;;5052296;28;20215;-70
2024/01/11 01:11:19;;;;;;;12.63;5.37;;;;;;;;;;5048027;28;20213;-69
2024/01/11 01:13:45;;;;;;;13.33;5.37;;;;;;;;;;5071071;28;20213;-71
2024/01/11 01:16:11;;;;;;;11.30;4.83;;;;;;;;;;5074050;28;20246;-70
2024/01/11 01:18:37;;;;;;;12.00;4.40;;;;;;;;;;5081392;28;20312;-72
2024/01/11 01:21:03;;;;;;;9.80;4.40;;;;;;;;;;5073870;28;20678;-68
2024/01/11 01:23:29;;;;;;;9.20;4.40;;;;;;;;;;5076365;28;20213;-70
2024/01/11 01:25:55;;;;;;;11.80;4.50;;;;;;;;;;5073512;28;20263;-70
2024/01/11 01:28:21;;;;;;;8.53;4.60;;;;;;;;;;5072016;28;20186;-69
2024/01/11 01:30:47;;;;;;;9.47;4.40;;;;;;;;;;5073213;28;20212;-69
2024/01/11 01:33:13;;;;;;;11.03;4.40;;;;;;;;;;5068331;28;20222;-70
2024/01/11 01:35:39;;;;;;;14.63;5.17;;;;;;;;;;5075984;28;20213;-70
2024/01/11 01:38:05;;;;;;;10.83;4.50;;;;;;;;;;5072548;28;20252;-71
2024/01/11 01:40:31;;;;;;;14.27;5.30;;;;;;;;;;5074955;28;20556;-70
2024/01/11 01:43:00;;;;;;;13.57;4.87;;;;;;;;;;5078009;28;20188;-70
2024/01/11 01:45:27;;;;;;;12.30;5.53;;;;;;;;;;5074533;28;20725;-70
2024/01/11 01:47:54;;;;;;;13.10;5.13;;;;;;;;;;5071215;28;20210;-70
2024/01/11 01:50:20;;;;;;;15.23;5.77;;;;;;;;;;5073261;28;20220;-70
2024/01/11 01:52:47;;;;;;;15.20;5.43;;;;;;;;;;5073683;28;20220;-70
2024/01/11 01:55:15;;;;;;;10.70;5.03;;;;;;;;;;5075404;28;20173;-70
2024/01/11 01:57:41;;;;;;;9.17;4.80;;;;;;;;;;5077501;28;20222;-68
2024/01/11 02:00:09;;;;;;;9.43;4.97;;;;;;;;;;5076373;28;20206;-69
2024/01/11 02:02:36;;;;;;;11.83;5.50;;;;;;;;;;5064124;28;20206;-72
2024/01/11 02:05:02;;;;;;;11.80;5.90;;;;;;;;;;5074492;28;20610;-68
2024/01/11 02:07:28;;;;;;;15.53;6.27;;;;;;;;;;5070394;28;20857;-69
2024/01/11 02:09:54;;;;;;;12.17;5.67;;;;;;;;;;5071679;28;20443;-70
2024/01/11 02:12:20;;;;;;;7.73;4.63;;;;;;;;;;5073335;28;20705;-71
2024/01/11 02:14:47;;;;;;;11.60;4.87;;;;;;;;;;5053438;28;20269;-71
2024/01/11 02:17:13;;;;;;;10.77;4.47;;;;;;;;;;5062107;28;20718;-71
2024/01/11 02:19:39;;;;;;;8.80;4.10;;;;;;;;;;5073703;28;20182;-70
2024/01/11 02:22:20;;;;;;;10.90;4.13;;;;;;;;;;5078439;28;20205;-70
2024/01/11 02:24:46;;;;;;;11.17;4.03;;;;;;;;;;5073756;28;20237;-70
2024/01/11 02:27:12;;;;;;;8.80;3.10;;;;;;;;;;5050524;28;20244;-69
2024/01/11 02:29:38;;;;;;;9.37;3.87;;;;;;;;;;5077592;28;20627;-71
2024/01/11 02:32:06;;;;;;;7.50;2.83;;;;;;;;;;5068513;28;20313;-71
2024/01/11 02:34:32;;;;;;;8.80;3.87;;;;;;;;;;5082382;28;20177;-68
2024/01/11 02:36:58;;;;;;;7.83;3.97;;;;;;;;;;5062368;28;20209;-69
2024/01/11 02:39:25;;;;;;;6.33;3.57;;;;;;;;;;5074563;28;20238;-70
2024/01/11 02:41:52;;;;;;;8.63;3.97;;;;;;;;;;5080229;28;20206;-68
2024/01/11 02:44:17;;;;;;;9.60;4.27;;;;;;;;;;5060499;28;20864;-69
2024/01/11 02:46:43;;;;;;;8.33;3.37;;;;;;;;;;5077120;28;20224;-69
2024/01/11 02:49:09;;;;;;;10.27;4.07;;;;;;;;;;5080646;28;20180;-70
2024/01/11 02:51:36;;;;;;;11.23;3.63;;;;;;;;;;5069914;28;20791;-69
2024/01/11 02:54:02;;;;;;;10.23;4.30;;;;;;;;;;5079382;28;20208;-71
2024/01/11 02:56:28;;;;;;;9.67;3.57;;;;;;;;;;5070718;28;20215;-71
2024/01/11 02:58:54;;;;;;;10.93;4.03;;;;;;;;;;5052119;28;20606;-71
2024/01/11 03:01:20;;;;;;;10.47;4.17;;;;;;;;;;5075863;28;20206;-70
2024/01/11 03:03:46;;;;;;;9.17;4.23;;;;;;;;;;5072124;28;20206;-70
2024/01/11 03:06:12;;;;;;;11.50;3.90;;;;;;;;;;5052981;28;20224;-69
2024/01/11 03:08:38;;;;;;;11.47;3.83;;;;;;;;;;5078232;28;20204;-70
2024/01/11 03:11:04;;;;;;;9.50;3.93;;;;;;;;;;5074957;28;20317;-71
2024/01/11 03:13:31;;;;;;;10.97;4.00;;;;;;;;;;5072230;28;20178;-70
2024/01/11 03:15:58;;;;;;;9.47;3.67;;;;;;;;;;5075967;28;20202;-70
2024/01/11 03:18:23;;;;;;;11.87;4.27;;;;;;;;;;5073778;28;20279;-71
2024/01/11 03:20:49;;;;;;;9.37;3.47;;;;;;;;;;5073319;28;20224;-71
2024/01/11 03:23:15;;;;;;;10.07;3.63;;;;;;;;;;5073645;28;20291;-72
2024/01/11 03:25:41;;;;;;;9.13;3.97;;;;;;;;;;5073378;28;20225;-68
2024/01/11 03:28:08;;;;;;;6.83;3.67;;;;;;;;;;5073159;28;20182;-70
2024/01/11 03:30:33;;;;;;;7.63;3.47;;;;;;;;;;5060677;28;20219;-71
2024/01/11 03:33:00;;;;;;;12.03;4.20;;;;;;;;;;5075694;28;20212;-70
2024/01/11 03:35:26;;;;;;;7.67;3.43;;;;;;;;;;5078925;28;20743;-70
2024/01/11 03:37:52;;;;;;;8.47;3.70;;;;;;;;;;5055569;28;21219;-71
2024/01/11 03:40:18;;;;;;;8.57;3.77;;;;;;;;;;5070391;28;20213;-71
2024/01/11 03:42:44;;;;;;;11.93;4.07;;;;;;;;;;5072320;28;20209;-70
2024/01/11 03:45:10;;;;;;;9.90;4.47;;;;;;;;;;5069605;28;20237;-70
2024/01/11 03:47:36;;;;;;;13.47;4.30;;;;;;;;;;5056146;28;20204;-70
2024/01/11 03:50:02;;;;;;;12.17;5.07;;;;;;;;;;5067767;28;20227;-70
2024/01/11 03:52:28;;;;;;;13.97;3.33;;;;;;;;;;5055000;28;20217;-70
2024/01/11 03:54:55;;;;;;;10.03;4.30;;;;;;;;;;5067598;28;20347;-71
2024/01/11 03:57:21;;;;;;;9.13;4.53;;;;;;;;;;5069414;28;20603;-68
2024/01/11 03:59:47;;;;;;;9.40;4.37;;;;;;;;;;5059005;28;20202;-70
2024/01/11 04:02:13;;;;;;;12.17;4.67;;;;;;;;;;5055337;28;20251;-70
2024/01/11 04:04:41;;;;;;;12.50;4.37;;;;;;;;;;5069743;28;20179;-71
2024/01/11 04:07:07;;;;;;;17.20;4.73;;;;;;;;;;5072446;28;20612;-70
2024/01/11 04:09:32;;;;;;;12.77;3.77;;;;;;;;;;5051528;28;20618;-68
2024/01/11 04:11:58;;;;;;;12.30;4.33;;;;;;;;;;5074032;28;20228;-70
2024/01/11 04:14:24;;;;;;;11.23;4.33;;;;;;;;;;5068249;28;20211;-69
2024/01/11 04:16:50;;;;;;;9.60;3.93;;;;;;;;;;5067906;28;20226;-69
2024/01/11 04:19:17;;;;;;;11.33;3.93;;;;;;;;;;5071011;28;20194;-70
2024/01/11 04:21:43;;;;;;;13.70;4.80;;;;;;;;;;5066373;28;20797;-69
2024/01/11 04:24:09;;;;;;;13.03;4.07;;;;;;;;;;5067289;28;20242;-71
2024/01/11 04:26:35;;;;;;;12.87;3.90;;;;;;;;;;5074185;28;20696;-69
2024/01/11 04:29:01;;;;;;;13.77;3.87;;;;;;;;;;5068719;28;20202;-68
2024/01/11 04:31:27;;;;;;;10.87;3.63;;;;;;;;;;5068105;28;20217;-70
2024/01/11 04:33:53;;;;;;;10.37;4.60;;;;;;;;;;5060593;28;20176;-70
2024/01/11 04:36:19;;;;;;;11.87;4.40;;;;;;;;;;5071715;28;20214;-69
2024/01/11 04:38:45;;;;;;;12.47;3.90;;;;;;;;;;5049124;28;20237;-70
2024/01/11 04:41:12;;;;;;;12.90;4.50;;;;;;;;;;5073126;28;20214;-68
2024/01/11 04:43:42;;;;;;;11.53;4.10;;;;;;;;;;5053753;28;20266;-69
2024/01/11 04:46:18;;;;;;;11.13;3.83;;;;;;;;;;5076583;28;20584;-69
2024/01/11 04:48:44;;;;;;;10.17;4.17;;;;;;;;;;5067127;28;20220;-70
2024/01/11 04:51:11;;;;;;;12.00;4.63;;;;;;;;;;5077692;28;20298;-67
2024/01/11 04:53:38;;;;;;;13.77;4.50;;;;;;;;;;5074840;28;20715;-69
2024/01/11 04:56:04;;;;;;;9.83;4.30;;;;;;;;;;5071967;28;20218;-71
2024/01/11 04:58:30;;;;;;;10.97;3.90;;;;;;;;;;5074369;28;20264;-68
2024/01/11 05:00:56;;;;;;;13.67;4.47;;;;;;;;;;5076700;28;20202;-70
2024/01/11 05:03:22;;;;;;;13.67;4.93;;;;;;;;;;5077964;28;20209;-70
2024/01/11 05:05:48;;;;;;;13.67;4.07;;;;;;;;;;5071192;28;20198;-69
2024/01/11 05:08:14;;;;;;;11.57;5.30;;;;;;;;;;5070954;28;20459;-69
2024/01/11 05:10:40;;;;;;;12.90;4.57;;;;;;;;;;5070664;28;21318;-68
2024/01/11 05:13:06;;;;;;;13.67;4.17;;;;;;;;;;5078617;28;20183;-69
2024/01/11 05:15:33;;;;;;;14.50;4.87;;;;;;;;;;5077181;28;20210;-68
2024/01/11 05:17:59;;;;;;;13.27;4.30;;;;;;;;;;5076915;28;20222;-70
2024/01/11 05:20:25;;;;;;;10.83;4.50;;;;;;;;;;5073783;28;20214;-70
2024/01/11 05:22:51;;;;;;;15.17;4.53;;;;;;;;;;5074242;28;20214;-68
2024/01/11 05:25:17;;;;;;;14.37;4.07;;;;;;;;;;5080881;28;20193;-69
2024/01/11 05:27:43;;;;;;;11.37;4.10;;;;;;;;;;5056164;28;20249;-69
2024/01/11 05:30:09;;;;;;;14.37;4.90;;;;;;;;;;5071694;28;20239;-71
2024/01/11 05:32:35;;;;;;;14.93;4.57;;;;;;;;;;5058146;28;20202;-70
2024/01/11 05:35:01;;;;;;;11.67;4.67;;;;;;;;;;5064094;28;20788;-70
2024/01/11 05:37:27;;;;;;;13.23;4.50;;;;;;;;;;5068947;28;20203;-70
2024/01/11 05:39:54;;;;;;;13.03;5.23;;;;;;;;;;5063482;28;20178;-70
2024/01/11 05:42:20;;;;;;;11.17;4.23;;;;;;;;;;5075412;28;20237;-69
2024/01/11 05:44:46;;;;;;;12.83;4.90;;;;;;;;;;5069150;28;20214;-70
2024/01/11 05:47:12;;;;;;;13.67;4.90;;;;;;;;;;5054009;28;20203;-71
2024/01/11 05:49:38;;;;;;;13.60;4.60;;;;;;;;;;5068630;28;20651;-69
2024/01/11 05:52:04;;;;;;;13.40;5.10;;;;;;;;;;5036113;28;20191;-69
2024/01/11 05:54:30;;;;;;;19.37;5.20;;;;;;;;;;5069991;28;20215;-68
2024/01/11 05:56:57;;;;;;;20.63;5.80;;;;;;;;;;5068918;28;20211;-70
2024/01/11 05:59:24;;;;;;;12.90;4.43;;;;;;;;;;5077605;28;20221;-70
2024/01/11 06:01:50;;;;;;;14.87;5.57;;;;;;;;;;5074174;28;20868;-70
2024/01/11 06:04:16;;;;;;;16.47;4.67;;;;;;;;;;5064891;28;20264;-70
2024/01/11 06:06:42;;;;;;;16.60;5.67;;;;;;;;;;5073975;28;20236;-71
2024/01/11 06:09:09;;;;;;;14.60;6.10;;;;;;;;;;5073355;28;20267;-71
2024/01/11 06:11:35;;;;;;;14.17;5.50;;;;;;;;;;5076149;28;20848;-70
2024/01/11 06:14:02;;;;;;;18.33;6.80;;;;;;;;;;5075643;28;20779;-69
2024/01/11 06:16:28;;;;;;;24.10;6.43;;;;;;;;;;5072562;28;20285;-70
2024/01/11 06:18:55;;;;;;;19.30;7.30;;;;;;;;;;5065399;28;20312;-70
2024/01/11 06:21:22;;;;;;;16.23;5.50;;;;;;;;;;5067263;28;20249;-70
2024/01/11 06:23:49;;;;;;;14.57;5.57;;;;;;;;;;5069426;28;20221;-70
2024/01/11 06:26:15;;;;;;;11.87;5.03;;;;;;;;;;5069160;28;20232;-70
2024/01/11 06:28:41;;;;;;;17.70;5.73;;;;;;;;;;5072490;28;20314;-69
2024/01/11 06:31:07;;;;;;;19.20;6.67;;;;;;;;;;5070559;28;20213;-70
2024/01/11 06:33:36;;;;;;;16.93;5.60;;;;;;;;;;5057570;28;20247;-70
2024/01/11 06:36:02;;;;;;;15.20;5.87;;;;;;;;;;5077782;28;20207;-70
2024/01/11 06:38:28;;;;;;;17.67;6.60;;;;;;;;;;5072509;28;20226;-70
2024/01/11 06:40:54;;;;;;;19.93;7.07;;;;;;;;;;5070701;28;20227;-70
2024/01/11 06:43:20;;;;;;;18.80;6.70;;;;;;;;;;5071732;28;20191;-68
2024/01/11 06:45:46;;;;;;;15.50;5.87;;;;;;;;;;5051111;28;20183;-70
2024/01/11 06:48:12;;;;;;;20.57;6.23;;;;;;;;;;5056206;28;20215;-70
2024/01/11 06:50:38;;;;;;;16.47;6.10;;;;;;;;;;5072713;28;20214;-71
2024/01/11 06:53:04;;;;;;;20.27;6.70;;;;;;;;;;5055174;28;20222;-70
2024/01/11 06:55:30;;;;;;;18.23;7.07;;;;;;;;;;5069888;28;20565;-71
2024/01/11 06:57:57;;;;;;;19.97;7.13;;;;;;;;;;5052264;28;20203;-71
2024/01/11 07:00:23;;;;;;;22.70;7.67;;;;;;;;;;5068237;28;20206;-69
2024/01/11 07:02:49;;;;;;;24.40;6.80;;;;;;;;;;5082138;28;20294;-70
2024/01/11 07:05:15;;;;;;;26.13;9.43;;;;;;;;;;5077105;28;20219;-70
2024/01/11 07:07:41;;;;;;;18.53;7.27;;;;;;;;;;5067079;28;20213;-71
2024/01/11 07:10:08;;;;;;;19.70;7.10;;;;;;;;;;5066039;28;20165;-70
2024/01/11 07:12:34;;;;;;;21.37;6.87;;;;;;;;;;5078840;28;20807;-73
2024/01/11 07:15:00;;;;;;;17.33;6.40;;;;;;;;;;5071850;28;20683;-70
2024/01/11 07:17:26;;;;;;;18.93;7.83;;;;;;;;;;5072643;28;20227;-69
2024/01/11 07:19:52;;;;;;;22.47;8.23;;;;;;;;;;5071004;28;20215;-72
2024/01/11 07:22:18;;;;;;;18.93;7.10;;;;;;;;;;5075974;28;20175;-69
2024/01/11 07:24:44;;;;;;;20.03;8.13;;;;;;;;;;5072844;28;20232;-70
2024/01/11 07:27:10;;;;;;;20.73;7.97;;;;;;;;;;5072997;28;20700;-69
2024/01/11 07:29:36;;;;;;;21.63;7.90;;;;;;;;;;5076448;28;20207;-69
2024/01/11 07:32:05;;;;;;;20.60;7.10;;;;;;;;;;5071343;28;20272;-69
2024/01/11 07:34:31;;;;;;;16.47;6.70;;;;;;;;;;5078032;28;20202;-69
2024/01/11 07:36:57;;;;;;;22.50;8.40;;;;;;;;;;5072540;28;20191;-69
2024/01/11 07:39:24;;;;;;;20.40;8.03;;;;;;;;;;5082677;28;20566;-71
2024/01/11 07:41:50;;;;;;;26.50;8.00;;;;;;;;;;5074674;28;20234;-71
2024/01/11 07:44:16;;;;;;;20.87;8.60;;;;;;;;;;5072640;28;20286;-71
2024/01/11 07:46:43;;;;;;;160.53;36.53;;;;;;;;;;5073546;28;20273;-69
2024/01/11 07:49:10;;;;;;;27.77;7.47;;;;;;;;;;5078728;28;20166;-69
2024/01/11 07:51:36;;;;;;;22.47;7.10;;;;;;;;;;5073147;28;20198;-70
2024/01/11 07:54:02;;;;;;;20.53;7.53;;;;;;;;;;5070618;28;20211;-71
2024/01/11 07:56:28;;;;;;;24.60;9.30;;;;;;;;;;5070212;28;20234;-71
2024/01/11 07:58:54;;;;;;;27.83;8.30;;;;;;;;;;5052237;28;20646;-71
2024/01/11 08:01:20;;;;;;;23.43;7.97;;;;;;;;;;5076984;28;20210;-72
2024/01/11 08:03:47;;;;;;;21.47;7.87;;;;;;;;;;5073554;28;20164;-70
2024/01/11 08:06:13;;;;;;;16.77;7.17;;;;;;;;;;5074640;28;20279;-70
2024/01/11 08:08:39;;;;;;;21.30;7.50;;;;;;;;;;5081570;28;20590;-69
2024/01/11 08:11:07;;;;;;;21.33;7.87;;;;;;;;;;5069523;28;20215;-71
2024/01/11 08:13:34;;;;;;;24.00;8.20;;;;;;;;;;5058210;28;20178;-70
2024/01/11 08:16:03;;;;;;;23.40;7.83;;;;;;;;;;5074688;28;20197;-70
2024/01/11 08:18:29;;;;;;;19.30;7.50;;;;;;;;;;5070763;28;20765;-70
2024/01/11 08:20:55;;;;;;;21.70;7.67;;;;;;;;;;5068737;28;20208;-70
2024/01/11 08:23:21;;;;;;;25.40;7.37;;;;;;;;;;5076984;28;20195;-70
2024/01/11 08:25:47;;;;;;;23.47;7.37;;;;;;;;;;5074996;28;20218;-73
2024/01/11 08:28:14;;;;;;;20.40;6.33;;;;;;;;;;5073010;28;20194;-73
2024/01/11 08:30:40;;;;;;;21.73;7.53;;;;;;;;;;5056882;28;20207;-70
2024/01/11 08:33:06;;;;;;;17.37;6.83;;;;;;;;;;5068766;28;20605;-71
2024/01/11 08:35:32;;;;;;;18.53;6.77;;;;;;;;;;5075224;28;20249;-69
2024/01/11 08:37:58;;;;;;;21.20;7.97;;;;;;;;;;5075202;28;20214;-71
2024/01/11 08:40:25;;;;;;;26.77;7.67;;;;;;;;;;5058061;28;20204;-72
2024/01/11 08:42:51;;;;;;;23.93;7.63;;;;;;;;;;5057242;28;20543;-70
2024/01/11 08:45:17;;;;;;;21.57;7.90;;;;;;;;;;5073223;28;20202;-71
2024/01/11 08:47:47;;;;;;;22.30;8.63;;;;;;;;;;5074768;28;20290;-71
2024/01/11 08:50:13;;;;;;;28.63;9.23;;;;;;;;;;5046504;28;20199;-71
2024/01/11 08:52:39;;;;;;;21.13;8.60;;;;;;;;;;5072746;28;21165;-70
2024/01/11 08:55:06;;;;;;;25.23;7.80;;;;;;;;;;5069575;28;20248;-71
2024/01/11 08:57:32;;;;;;;24.67;7.93;;;;;;;;;;5070472;28;20218;-70
2024/01/11 08:59:58;;;;;;;24.17;9.57;;;;;;;;;;5063873;28;20199;-70
2024/01/11 09:02:24;;;;;;;20.70;9.00;;;;;;;;;;5072983;28;20201;-69
2024/01/11 09:04:50;;;;;;;24.10;8.23;;;;;;;;;;5072709;28;20231;-69
2024/01/11 09:07:16;;;;;;;24.90;7.87;;;;;;;;;;5056210;28;20171;-69
2024/01/11 09:09:42;;;;;;;23.00;9.97;;;;;;;;;;5068811;28;20217;-69
2024/01/11 09:12:08;;;;;;;25.77;8.50;;;;;;;;;;5071400;28;20221;-70
2024/01/11 09:14:34;;;;;;;26.03;8.90;;;;;;;;;;5072959;28;20693;-70
2024/01/11 09:17:00;;;;;;;20.50;7.73;;;;;;;;;;5066245;28;20217;-72
2024/01/11 09:19:26;;;;;;;24.90;9.37;;;;;;;;;;5073130;28;20643;-71
2024/01/11 09:21:52;;;;;;;25.83;11.40;;;;;;;;;;5055928;28;20191;-70
2024/01/11 09:24:18;;;;;;;22.03;8.53;;;;;;;;;;5049826;28;20207;-70
2024/01/11 09:26:44;;;;;;;25.43;9.30;;;;;;;;;;5071512;28;20205;-70
2024/01/11 09:29:10;;;;;;;25.43;8.60;;;;;;;;;;5072798;28;20334;-71
2024/01/11 09:31:36;;;;;;;20.37;8.23;;;;;;;;;;5070035;28;20212;-69
2024/01/11 09:34:02;;;;;;;20.00;8.57;;;;;;;;;;5068292;28;20174;-70
2024/01/11 09:36:28;;;;;;;22.77;9.90;;;;;;;;;;5071927;28;20208;-70
2024/01/11 09:38:54;;;;;;;21.47;8.27;;;;;;;;;;5069087;28;20215;-70
2024/01/11 09:41:20;;;;;;;18.87;7.37;;;;;;;;;;5072773;28;20204;-70
2024/01/11 09:43:46;;;;;;;20.77;7.40;;;;;;;;;;5069744;28;20220;-71
2024/01/11 09:46:12;;;;;;;22.53;9.43;;;;;;;;;;5040766;28;20182;-70
2024/01/11 09:48:39;;;;;;;21.13;7.47;;;;;;;;;;5063265;28;20223;-71
2024/01/11 09:51:07;;;;;;;23.80;9.17;;;;;;;;;;5070947;28;20220;-70
2024/01/11 09:53:33;;;;;;;24.40;9.20;;;;;;;;;;5071347;28;20235;-70
2024/01/11 09:56:00;;;;;;;24.60;8.60;;;;;;;;;;5070807;28;20239;-70
2024/01/11 09:58:26;;;;;;;24.87;9.53;;;;;;;;;;5061373;28;20265;-71
2024/01/11 10:00:56;;;;;;;27.23;9.67;;;;;;;;;;5074493;28;20201;-70
2024/01/11 10:03:24;;;;;;;25.03;10.20;;;;;;;;;;5079942;28;20262;-71
2024/01/11 10:05:53;;;;;;;25.63;10.90;;;;;;;;;;5080878;28;20738;-71
2024/01/11 10:08:21;;;;;;;23.77;9.93;;;;;;;;;;5045333;28;20199;-70
2024/01/11 10:10:48;;;;;;;25.30;9.50;;;;;;;;;;5055231;28;20214;-70
2024/01/11 10:13:14;;;;;;;27.87;10.43;;;;;;;;;;5072811;28;20176;-70
2024/01/11 10:15:40;;;;;;;25.40;9.63;;;;;;;;;;5059521;28;20207;-70
2024/01/11 10:18:06;;;;;;;29.77;9.90;;;;;;;;;;5073658;28;20597;-70
2024/01/11 10:20:33;;;;;;;24.50;9.43;;;;;;;;;;5072189;28;20574;-69
2024/01/11 10:22:59;;;;;;;31.20;10.70;;;;;;;;;;5062060;28;20237;-70
2024/01/11 10:25:25;;;;;;;28.57;9.73;;;;;;;;;;5062285;28;20195;-72
2024/01/11 10:27:51;;;;;;;23.87;9.43;;;;;;;;;;5064942;28;20184;-70
2024/01/11 10:30:19;;;;;;;23.20;8.90;;;;;;;;;;5071295;28;20238;-70
2024/01/11 10:32:45;;;;;;;24.43;9.60;;;;;;;;;;5057249;28;20208;-70
2024/01/11 10:35:11;;;;;;;28.73;10.30;;;;;;;;;;5068683;28;20312;-70
2024/01/11 10:37:41;;;;;;;25.27;9.67;;;;;;;;;;5058802;28;20292;-70
2024/01/11 10:40:14;;;;;;;28.90;11.33;;;;;;;;;;5076509;28;20231;-70
2024/01/11 10:42:44;;;;;;;25.03;9.23;;;;;;;;;;5073905;28;20282;-70
2024/01/11 10:45:13;;;;;;;27.70;9.00;;;;;;;;;;5073221;28;20622;-69
2024/01/11 10:47:39;;;;;;;25.67;9.53;;;;;;;;;;5075177;28;20212;-69
2024/01/11 10:50:06;;;;;;;27.57;9.90;;;;;;;;;;5073089;28;20304;-69
2024/01/11 10:52:36;;;;;;;26.97;9.20;;;;;;;;;;5072528;28;20182;-68
2024/01/11 10:55:02;;;;;;;23.60;9.13;;;;;;;;;;5051380;28;20179;-71
2024/01/11 10:57:29;;;;;;;18.87;9.77;;;;;;;;;;5053209;28;20371;-71
2024/01/11 10:59:57;;;;;;;26.27;9.60;;;;;;;;;;5076122;28;20735;-70
2024/01/11 11:02:23;;;;;;;28.53;10.07;;;;;;;;;;5058380;28;20211;-71
2024/01/11 11:04:49;;;;;;;31.70;10.13;;;;;;;;;;5069348;28;20205;-70
2024/01/11 11:07:16;;;;;;;24.43;9.73;;;;;;;;;;5069373;28;20197;-71
2024/01/11 11:09:43;;;;;;;26.17;9.23;;;;;;;;;;5052884;28;20289;-70
2024/01/11 11:12:11;;;;;;;30.80;10.80;;;;;;;;;;5072728;28;20839;-70
2024/01/11 11:14:39;;;;;;;25.47;9.97;;;;;;;;;;5072520;28;20214;-70
2024/01/11 11:17:05;;;;;;;27.47;10.53;;;;;;;;;;5077519;28;20614;-69
2024/01/11 11:19:32;;;;;;;34.73;11.53;;;;;;;;;;5072422;28;20581;-71
2024/01/11 11:21:58;;;;;;;29.53;9.73;;;;;;;;;;5054475;28;20547;-70
2024/01/11 11:24:24;;;;;;;26.90;10.30;;;;;;;;;;5072258;28;20221;-72
2024/01/11 11:26:50;;;;;;;27.70;11.03;;;;;;;;;;5061005;28;20210;-71
2024/01/11 11:29:16;;;;;;;27.60;10.07;;;;;;;;;;5079821;28;20296;-71
2024/01/11 11:31:43;;;;;;;27.17;10.03;;;;;;;;;;5074315;28;20211;-71
2024/01/11 11:34:13;;;;;;;28.73;11.23;;;;;;;;;;5073505;28;20171;-68
2024/01/11 11:36:41;;;;;;;26.57;10.60;;;;;;;;;;5078532;28;20223;-69
2024/01/11 11:39:11;;;;;;;28.17;9.83;;;;;;;;;;5073885;28;20736;-69
2024/01/11 11:41:38;;;;;;;25.03;8.73;;;;;;;;;;5077596;28;20241;-69
2024/01/11 11:44:05;;;;;;;19.43;9.53;;;;;;;;;;5080158;28;20291;-69
2024/01/11 11:46:32;;;;;;;21.67;8.83;;;;;;;;;;5072256;28;20178;-69
2024/01/11 11:48:58;;;;;;;22.50;9.27;;;;;;;;;;5046578;28;20179;-69
2024/01/11 11:51:25;;;;;;;22.20;9.57;;;;;;;;;;5062604;28;20215;-69
2024/01/11 11:53:51;;;;;;;24.77;10.10;;;;;;;;;;5052157;28;20220;-69
2024/01/11 11:56:21;;;;;;;22.23;8.33;;;;;;;;;;5040899;28;20733;-69
2024/01/11 11:58:49;;;;;;;24.73;9.53;;;;;;;;;;5049583;28;20241;-68
2024/01/11 12:01:17;;;;;;;21.70;9.17;;;;;;;;;;5069930;28;20200;-70
2024/01/11 12:03:48;;;;;;;23.60;9.13;;;;;;;;;;5075082;28;20774;-69
2024/01/11 12:06:15;;;;;;;23.07;9.47;;;;;;;;;;5071968;28;20219;-69
2024/01/11 12:08:45;;;;;;;19.90;8.60;;;;;;;;;;5075450;28;20265;-70
2024/01/11 12:11:13;;;;;;;27.60;9.23;;;;;;;;;;5066993;28;20214;-70
2024/01/11 12:13:40;;;;;;;24.53;9.27;;;;;;;;;;5073592;28;20225;-69
2024/01/11 12:16:06;;;;;;;21.83;9.03;;;;;;;;;;5077536;28;20200;-70
2024/01/11 12:18:32;;;;;;;19.97;9.23;;;;;;;;;;5074869;28;20582;-69
2024/01/11 12:20:58;;;;;;;22.43;9.60;;;;;;;;;;5067827;28;20214;-69
2024/01/11 12:23:24;;;;;;;21.43;7.87;;;;;;;;;;5070408;28;20895;-69
2024/01/11 12:25:50;;;;;;;20.57;9.47;;;;;;;;;;5071421;28;20723;-71
2024/01/11 12:28:17;;;;;;;19.00;9.30;;;;;;;;;;5069580;28;20672;-70
2024/01/11 12:30:43;;;;;;;22.80;8.90;;;;;;;;;;5065746;28;20734;-69
2024/01/11 12:33:09;;;;;;;20.77;9.37;;;;;;;;;;5070634;28;20212;-68
2024/01/11 12:35:35;;;;;;;24.37;10.10;;;;;;;;;;5071775;28;20230;-69
2024/01/11 12:38:01;;;;;;;26.90;9.97;;;;;;;;;;5058695;28;20215;-69
2024/01/11 12:40:28;;;;;;;28.43;10.57;;;;;;;;;;5067931;28;20606;-69
2024/01/11 12:42:54;;;;;;;19.67;9.63;;;;;;;;;;5077500;28;20188;-70
2024/01/11 12:45:20;;;;;;;22.30;9.07;;;;;;;;;;5071087;28;20200;-69
2024/01/11 12:47:46;;;;;;;27.00;10.63;;;;;;;;;;5066802;28;20745;-70
2024/01/11 12:50:12;;;;;;;24.13;10.30;;;;;;;;;;5055251;28;20204;-69
2024/01/11 12:52:41;;;;;;;23.20;9.97;;;;;;;;;;5053180;28;20183;-70
2024/01/11 12:55:09;;;;;;;23.83;10.00;;;;;;;;;;5079378;28;20178;-69
2024/01/11 12:57:35;;;;;;;27.63;10.57;;;;;;;;;;5054980;28;20268;-69
2024/01/11 13:00:11;;;;;;;24.13;10.83;;;;;;;;;;5071919;28;20202;-69
2024/01/11 13:02:37;;;;;;;22.83;9.47;;;;;;;;;;5069110;28;20203;-69
2024/01/11 13:05:04;;;;;;;24.30;9.63;;;;;;;;;;5049304;28;20206;-70
2024/01/11 13:07:32;;;;;;;20.23;9.10;;;;;;;;;;5053413;28;20188;-69
2024/01/11 13:09:58;;;;;;;21.97;9.70;;;;;;;;;;5070495;28;20543;-70
2024/01/11 13:12:24;;;;;;;21.17;9.30;;;;;;;;;;5079668;28;20210;-71
2024/01/11 13:14:52;;;;;;;23.43;8.60;;;;;;;;;;5082614;28;20214;-70
2024/01/11 13:17:18;;;;;;;23.07;9.20;;;;;;;;;;5084484;28;20220;-70
2024/01/11 13:19:44;;;;;;;22.77;8.77;;;;;;;;;;5081374;28;20228;-70
2024/01/11 13:22:11;;;;;;;24.93;10.07;;;;;;;;;;5080545;28;20668;-70
2024/01/11 13:24:37;;;;;;;28.80;10.20;;;;;;;;;;5071261;28;20213;-69
2024/01/11 13:27:03;;;;;;;22.27;9.23;;;;;;;;;;5073203;28;20285;-69
2024/01/11 13:29:29;;;;;;;26.00;10.10;;;;;;;;;;5075616;28;20280;-69
2024/01/11 13:31:55;;;;;;;22.00;8.87;;;;;;;;;;5071131;28;20687;-69
2024/01/11 13:34:21;;;;;;;21.07;9.47;;;;;;;;;;5079921;28;20188;-69
2024/01/11 13:36:47;;;;;;;19.03;8.77;;;;;;;;;;5060751;28;20217;-69
2024/01/11 13:39:14;;;;;;;17.73;8.03;;;;;;;;;;5071518;28;20195;-69
2024/01/11 13:41:40;;;;;;;18.07;7.13;;;;;;;;;;5074484;28;20209;-69
2024/01/11 13:44:07;;;;;;;21.73;8.23;;;;;;;;;;5073107;28;20261;-71
2024/01/11 13:46:33;;;;;;;21.30;8.40;;;;;;;;;;5070202;28;20200;-70
2024/01/11 13:48:59;;;;;;;19.27;7.83;;;;;;;;;;5070877;28;20193;-69
2024/01/11 13:51:25;;;;;;;19.57;8.97;;;;;;;;;;5077572;28;20222;-69
2024/01/11 13:53:51;;;;;;;15.77;6.97;;;;;;;;;;5078554;28;20692;-70
2024/01/11 13:56:17;;;;;;;23.97;9.47;;;;;;;;;;5077531;28;20206;-70
2024/01/11 13:58:44;;;;;;;22.20;8.90;;;;;;;;;;5072202;28;20229;-70
2024/01/11 14:01:11;;;;;;;16.50;8.87;;;;;;;;;;5068709;28;20214;-70
2024/01/11 14:03:37;;;;;;;21.60;9.03;;;;;;;;;;5070655;28;20222;-70
2024/01/11 14:06:03;;;;;;;18.00;8.20;;;;;;;;;;5055615;28;20642;-70
2024/01/11 14:08:29;;;;;;;21.83;9.10;;;;;;;;;;5061675;28;20229;-68
2024/01/11 14:10:56;;;;;;;22.77;9.50;;;;;;;;;;5069762;28;20222;-69
2024/01/11 14:13:22;;;;;;;19.77;8.50;;;;;;;;;;5070832;28;20174;-70
2024/01/11 14:15:48;;;;;;;23.37;8.73;;;;;;;;;;5077825;28;20194;-71
2024/01/11 14:18:14;;;;;;;21.57;8.33;;;;;;;;;;5041991;28;20658;-71
2024/01/11 14:20:40;;;;;;;19.50;8.50;;;;;;;;;;5057619;28;20214;-69
2024/01/11 14:23:06;;;;;;;22.03;9.97;;;;;;;;;;5073592;28;20232;-69
2024/01/11 14:25:32;;;;;;;17.83;8.00;;;;;;;;;;5075831;28;20182;-69